Aérodrome :
LOGIN :

S'inscrire | Disclaimer

   EN    FR    IT 

 










Légende :    VFR   VFR Marginal   IFR   IFR Intensif   IFR Très Intensif
Visi : 
Plafond : 
>= 8 km
>= 3000ft
5 à 8 km
1000 à 3000 ft
1500m à 5 km
500 à 1000 ft
800 à 1500m
200 à 500 ft
< 800m
< 200 ft
Symboles :   Orages  Brouillard  Fortes neiges  Fortes précipitations  Vent > 20 kt
SIGMETs :   Divers  Orages  Givrage  Turbulence  Onde Orograph.  Cendres Volcan.






- Altitude de l'aérodrome : 49 ft
- Code IATA : AOI


LIPY - Ancona Falconara

DERNIER METAR :
  • 041620Z AUTO 13006KT 090V170 9999 BKN100/// 29/19 Q1009

METARs EXPIRÉS :
  • 041550Z AUTO 14006KT 100V210 9999 BKN100/// 29/16 Q1009
  • 041520Z AUTO 12006KT 080V170 9999 FEW110/// 30/15 Q1010
  • 041450Z AUTO 12009KT 070V150 9999 NCD 31/15 Q1010
  • 041420Z AUTO 11010KT 070V150 9999 NCD 30/14 Q1010
  • 041350Z AUTO 13009KT 080V200 9999 NCD 31/15 Q1010

TAF TAF LIPY
Valide du 04 à 12h jusqu'au 05 à 12h UTC


041100Z 0412/0512 13012KT 9999 FEW040
BECMG 0418/0421 24006KT
TEMPO 0422/0503 SHRA
BECMG 0506/0508 26016KT



MET'MAP, la Météo Aéronautique d'un coup d'oeil ! - Copyright ORBIFLY Décembre 2007 - Disclaimer

ORBIFLY MET'MAP TEAM :

Programmation & Développement : Alexandra Zaïnal
Sur une idée originale de : Baudouin d'Aumeries
Assistance à la programmation : Marc-Olivier Méhu
Soutien technique & logistique : Manuel Goepfert

Contact : metmap@orbifly.com




SOURCES & CREDITS :

   NOAA